createdAt,value
2022-11-06T00:00:18.525Z,9.77
2022-11-06T00:02:45.626Z,9.74
2022-11-06T00:05:31.166Z,9.74
2022-11-06T00:07:57.875Z,9.79
2022-11-06T00:10:24.644Z,9.78
2022-11-06T00:12:51.947Z,9.77
2022-11-06T00:15:18.521Z,9.76
2022-11-06T00:17:45.043Z,9.77
2022-11-06T00:20:11.597Z,9.75
2022-11-06T00:22:38.366Z,9.77
2022-11-06T00:25:07.128Z,9.80
2022-11-06T00:27:37.355Z,9.77
2022-11-06T00:30:14.220Z,9.79
2022-11-06T00:32:40.762Z,9.79
2022-11-06T00:35:07.700Z,9.81
2022-11-06T00:37:34.946Z,9.82
2022-11-06T00:40:01.963Z,9.74
2022-11-06T00:42:28.456Z,9.76
2022-11-06T00:44:55.012Z,9.75
2022-11-06T00:47:21.547Z,9.72
2022-11-06T00:49:48.177Z,9.70
2022-11-06T00:52:14.731Z,9.69
2022-11-06T00:54:41.377Z,9.66
2022-11-06T00:57:08.016Z,9.66
2022-11-06T00:59:34.609Z,9.70
2022-11-06T01:02:01.269Z,9.71
2022-11-06T01:04:27.905Z,9.69
2022-11-06T01:06:56.870Z,9.69
2022-11-06T01:09:25.790Z,9.74
2022-11-06T01:12:13.389Z,9.76
2022-11-06T01:14:41.419Z,9.78
2022-11-06T01:17:08.046Z,9.74
2022-11-06T01:19:34.628Z,9.74
2022-11-06T01:22:01.119Z,9.72
2022-11-06T01:24:29.157Z,9.70
2022-11-06T01:29:43.835Z,9.68
2022-11-06T01:32:10.602Z,9.65
2022-11-06T01:34:37.179Z,9.65
2022-11-06T01:37:04.207Z,9.66
2022-11-06T01:39:30.913Z,9.70
2022-11-06T01:41:57.609Z,9.66
2022-11-06T01:44:36.093Z,9.66
2022-11-06T01:47:18.290Z,9.67
2022-11-06T01:49:45.174Z,9.64
2022-11-06T01:52:14.841Z,9.65
2022-11-06T01:54:46.301Z,9.67
2022-11-06T01:57:13.094Z,9.61
2022-11-06T01:59:58.157Z,9.63
2022-11-06T02:02:25.128Z,9.61
2022-11-06T02:04:51.773Z,9.62
2022-11-06T02:07:19.971Z,9.63
2022-11-06T02:09:46.963Z,9.62
2022-11-06T02:12:21.927Z,9.63
2022-11-06T02:14:51.134Z,9.64
2022-11-06T02:17:39.048Z,9.59
2022-11-06T02:20:20.731Z,9.58
2022-11-06T02:23:20.301Z,9.62
2022-11-06T02:25:52.642Z,9.56
2022-11-06T02:28:26.502Z,9.57
2022-11-06T02:30:55.227Z,9.56
2022-11-06T02:33:36.288Z,9.56
2022-11-06T02:36:07.588Z,9.53
2022-11-06T02:38:39.717Z,9.51
2022-11-06T02:41:10.767Z,9.52
2022-11-06T02:43:41.028Z,9.55
2022-11-06T02:46:17.626Z,9.53
2022-11-06T02:48:51.661Z,9.52
2022-11-06T02:51:22.982Z,9.53
2022-11-06T02:53:50.085Z,9.58
2022-11-06T02:56:22.397Z,9.58
2022-11-06T02:58:56.214Z,9.62
2022-11-06T03:01:29.929Z,9.62
2022-11-06T03:04:04.170Z,9.59
2022-11-06T03:06:37.964Z,9.57
2022-11-06T03:09:17.615Z,9.52
2022-11-06T03:11:48.876Z,9.50
2022-11-06T03:14:22.404Z,9.51
2022-11-06T03:16:48.825Z,9.54
2022-11-06T03:19:22.824Z,9.52
2022-11-06T03:22:29.533Z,9.51
2022-11-06T03:25:09.708Z,9.53
2022-11-06T03:27:41.931Z,9.54
2022-11-06T03:30:16.211Z,9.58
2022-11-06T03:33:11.678Z,9.57
2022-11-06T03:35:44.485Z,9.59
2022-11-06T03:38:23.319Z,9.60
2022-11-06T03:41:05.050Z,9.63
2022-11-06T03:43:36.330Z,9.66
2022-11-06T03:46:10.894Z,9.69
2022-11-06T03:48:42.065Z,9.69
2022-11-06T03:51:18.097Z,9.64
2022-11-06T03:54:07.887Z,9.60
2022-11-06T03:56:46.046Z,9.59
2022-11-06T03:59:15.258Z,9.60
2022-11-06T04:01:45.564Z,9.58
2022-11-06T04:04:18.829Z,9.58
2022-11-06T04:07:03.071Z,9.58
2022-11-06T04:09:52.114Z,9.63
2022-11-06T04:12:43.596Z,9.59
2022-11-06T04:15:14.735Z,9.54
2022-11-06T04:17:41.906Z,9.60
2022-11-06T04:20:32.492Z,9.61
2022-11-06T04:23:13.647Z,9.62
2022-11-06T04:26:04.885Z,9.64
2022-11-06T04:28:46.303Z,9.63
2022-11-06T04:31:50.832Z,9.58
2022-11-06T04:34:26.941Z,9.57
2022-11-06T04:37:26.173Z,9.53
2022-11-06T04:40:17.301Z,9.52
2022-11-06T04:43:03.588Z,9.51
2022-11-06T04:45:36.245Z,9.45
2022-11-06T04:48:05.546Z,9.43
2022-11-06T04:50:39.100Z,9.42
2022-11-06T04:53:09.363Z,9.38
2022-11-06T04:55:47.957Z,9.39
2022-11-06T04:58:15.331Z,9.38
2022-11-06T05:00:46.007Z,9.38
2022-11-06T05:03:13.149Z,9.37
2022-11-06T05:05:41.418Z,9.36
2022-11-06T05:08:14.996Z,9.40
2022-11-06T05:10:42.975Z,9.38
2022-11-06T05:13:09.726Z,9.39
2022-11-06T05:15:36.356Z,9.40
2022-11-06T05:18:02.990Z,9.44
2022-11-06T05:20:29.865Z,9.46
2022-11-06T05:23:00.383Z,9.47
2022-11-06T05:25:36.249Z,9.46
2022-11-06T05:28:06.649Z,9.50
2022-11-06T05:30:34.541Z,9.46
2022-11-06T05:33:01.176Z,9.49
2022-11-06T05:35:30.366Z,9.49
2022-11-06T05:38:01.562Z,9.50
2022-11-06T05:40:28.823Z,9.51
2022-11-06T05:42:55.353Z,9.51
2022-11-06T05:45:21.844Z,9.52
2022-11-06T05:47:48.346Z,9.52
2022-11-06T05:50:14.858Z,9.53
2022-11-06T05:52:41.377Z,9.52
2022-11-06T05:55:13.261Z,9.54
2022-11-06T05:57:41.169Z,9.58
2022-11-06T06:00:08.872Z,9.59
2022-11-06T06:02:36.790Z,9.57
2022-11-06T06:05:05.334Z,9.52
2022-11-06T06:07:32.185Z,9.54
2022-11-06T06:09:58.761Z,9.53
2022-11-06T06:12:26.452Z,9.51
2022-11-06T06:14:53.983Z,9.52
2022-11-06T06:17:21.102Z,9.50
2022-11-06T06:19:48.453Z,9.56
2022-11-06T06:22:14.983Z,9.51
2022-11-06T06:24:41.826Z,9.50
2022-11-06T06:27:08.538Z,9.49
2022-11-06T06:29:35.067Z,9.48
2022-11-06T06:32:01.706Z,9.47
2022-11-06T06:34:28.214Z,9.47
2022-11-06T06:36:54.937Z,9.50
2022-11-06T06:39:21.636Z,9.47
2022-11-06T06:41:49.219Z,9.45
2022-11-06T06:44:16.195Z,9.47
2022-11-06T06:46:43.640Z,9.43
2022-11-06T06:49:10.285Z,9.43
2022-11-06T06:51:36.798Z,9.45
2022-11-06T06:54:03.642Z,9.48
2022-11-06T06:56:30.203Z,9.49
2022-11-06T06:58:56.745Z,9.52
2022-11-06T07:01:23.313Z,9.53
2022-11-06T07:03:49.918Z,9.57
2022-11-06T07:06:19.413Z,9.59
2022-11-06T07:08:45.906Z,9.59
2022-11-06T07:11:12.847Z,9.58
2022-11-06T07:13:39.389Z,9.58
2022-11-06T07:16:08.224Z,9.56
2022-11-06T07:18:35.426Z,9.53
2022-11-06T07:21:05.131Z,9.53
2022-11-06T07:23:31.662Z,9.50
2022-11-06T07:25:58.154Z,9.50
2022-11-06T07:28:24.720Z,9.41
2022-11-06T07:30:51.204Z,9.39
2022-11-06T07:33:17.748Z,9.39
2022-11-06T07:35:44.525Z,9.38
2022-11-06T07:38:11.330Z,9.40
2022-11-06T07:40:38.141Z,9.39
2022-11-06T07:43:07.296Z,9.38
2022-11-06T07:45:34.286Z,9.39
2022-11-06T07:48:00.946Z,9.38
2022-11-06T07:50:27.799Z,9.39
2022-11-06T07:52:55.007Z,9.39
2022-11-06T07:55:21.908Z,9.42
2022-11-06T07:57:48.578Z,9.40
2022-11-06T08:00:15.644Z,9.36
2022-11-06T08:02:42.350Z,9.34
2022-11-06T08:05:09.625Z,9.31
2022-11-06T08:07:36.167Z,9.36
2022-11-06T08:10:02.964Z,9.36
2022-11-06T08:12:29.712Z,9.35
2022-11-06T08:14:56.214Z,9.36
2022-11-06T08:17:22.704Z,9.37
2022-11-06T08:19:49.212Z,9.36
2022-11-06T08:22:15.677Z,9.39
2022-11-06T08:24:42.170Z,9.43
2022-11-06T08:27:08.641Z,9.42
2022-11-06T08:29:40.930Z,9.41
2022-11-06T08:32:07.960Z,9.44
2022-11-06T08:34:35.930Z,9.46
2022-11-06T08:37:02.449Z,9.44
2022-11-06T08:39:29.084Z,9.43
2022-11-06T08:41:55.577Z,9.45
2022-11-06T08:44:24.397Z,9.48
2022-11-06T08:46:52.224Z,9.48
2022-11-06T08:49:19.276Z,9.50
2022-11-06T08:51:45.766Z,9.58
2022-11-06T08:54:12.341Z,9.64
2022-11-06T08:56:38.971Z,9.76
2022-11-06T08:59:05.680Z,9.84
2022-11-06T09:01:32.341Z,9.85
2022-11-06T09:03:58.941Z,9.91
2022-11-06T09:06:25.745Z,9.91
2022-11-06T09:08:52.325Z,9.93
2022-11-06T09:11:18.893Z,9.96
2022-11-06T09:13:45.430Z,10.01
2022-11-06T09:16:15.872Z,10.05
2022-11-06T09:18:43.415Z,10.10
2022-11-06T09:21:10.429Z,10.16
2022-11-06T09:23:37.132Z,10.21
2022-11-06T09:26:03.716Z,10.27
2022-11-06T09:28:30.192Z,10.36
2022-11-06T09:30:56.695Z,10.40
2022-11-06T09:33:23.243Z,10.48
2022-11-06T09:35:49.817Z,10.57
2022-11-06T09:38:16.609Z,10.61
2022-11-06T09:40:51.296Z,10.66
2022-11-06T09:44:03.123Z,10.71
2022-11-06T09:46:38.698Z,10.82
2022-11-06T09:49:30.126Z,10.84
2022-11-06T09:52:08.712Z,10.93
2022-11-06T09:54:45.401Z,10.98
2022-11-06T09:57:15.939Z,11.03
2022-11-06T09:59:43.056Z,11.06
2022-11-06T10:02:31.993Z,11.09
2022-11-06T10:05:10.542Z,11.15
2022-11-06T10:07:40.861Z,11.20
2022-11-06T10:10:15.539Z,11.24
2022-11-06T10:12:53.819Z,11.28
2022-11-06T10:15:57.574Z,11.35
2022-11-06T10:19:01.349Z,11.39
2022-11-06T10:21:47.730Z,11.45
2022-11-06T10:24:45.882Z,11.44
2022-11-06T10:27:24.871Z,11.48
2022-11-06T10:30:09.609Z,11.49
2022-11-06T10:33:01.566Z,11.50
2022-11-06T10:35:39.948Z,11.50
2022-11-06T10:38:21.757Z,11.46
2022-11-06T10:40:50.411Z,11.47
2022-11-06T10:43:30.834Z,11.46
2022-11-06T10:46:06.752Z,11.44
2022-11-06T10:48:41.592Z,11.49
2022-11-06T10:51:29.504Z,11.49
2022-11-06T10:54:21.120Z,11.50
2022-11-06T10:56:58.695Z,11.51
2022-11-06T10:59:25.418Z,11.58
2022-11-06T11:01:52.313Z,11.54
2022-11-06T11:04:18.918Z,11.57
2022-11-06T11:06:45.491Z,11.59
2022-11-06T11:09:30.724Z,11.62
2022-11-06T11:11:58.638Z,11.61
2022-11-06T11:14:28.156Z,11.55
2022-11-06T11:16:55.838Z,11.54
2022-11-06T11:19:38.139Z,11.55
2022-11-06T11:22:16.894Z,11.52
2022-11-06T11:25:05.875Z,11.51
2022-11-06T11:27:38.327Z,11.52
2022-11-06T11:30:06.058Z,11.50
2022-11-06T11:32:33.371Z,11.51
2022-11-06T11:35:00.272Z,11.57
2022-11-06T11:37:32.261Z,11.58
2022-11-06T11:40:35.992Z,11.65
2022-11-06T11:43:21.998Z,11.67
2022-11-06T11:46:09.537Z,11.71
2022-11-06T11:48:51.413Z,11.77
2022-11-06T11:51:23.931Z,11.85
2022-11-06T11:53:52.581Z,11.92
2022-11-06T11:56:42.521Z,11.99
2022-11-06T11:59:17.421Z,12.05
2022-11-06T12:01:44.236Z,12.13
2022-11-06T12:04:22.390Z,12.20
2022-11-06T12:07:01.723Z,12.27
2022-11-06T12:09:31.901Z,12.29
2022-11-06T12:12:00.702Z,12.37
2022-11-06T12:14:36.949Z,12.42
2022-11-06T12:17:22.104Z,12.49
2022-11-06T12:19:53.567Z,12.58
2022-11-06T12:22:37.277Z,12.62
2022-11-06T12:25:12.905Z,12.59
2022-11-06T12:27:47.593Z,12.61
2022-11-06T12:30:19.056Z,12.65
2022-11-06T12:32:56.857Z,12.68
2022-11-06T12:35:37.661Z,12.66
2022-11-06T12:38:37.822Z,12.64
2022-11-06T12:41:15.514Z,12.57
2022-11-06T12:43:47.405Z,12.57
2022-11-06T12:46:28.862Z,12.54
2022-11-06T12:49:04.484Z,12.48
2022-11-06T12:51:55.455Z,12.44
2022-11-06T12:55:09.834Z,12.26
2022-11-06T12:57:55.041Z,12.15
2022-11-06T13:00:31.137Z,11.99
2022-11-06T13:03:22.584Z,11.90
2022-11-06T13:06:15.282Z,11.80
2022-11-06T13:09:04.883Z,11.77
2022-11-06T13:11:40.637Z,11.76
2022-11-06T13:14:22.812Z,11.74
2022-11-06T13:17:25.465Z,11.70
2022-11-06T13:20:10.972Z,11.77
2022-11-06T13:22:52.078Z,11.76
2022-11-06T13:25:24.680Z,11.71
2022-11-06T13:28:06.431Z,11.69
2022-11-06T13:30:37.082Z,11.66
2022-11-06T13:33:16.729Z,11.63
2022-11-06T13:35:45.317Z,11.64
2022-11-06T13:38:21.016Z,11.72
2022-11-06T13:40:59.313Z,11.72
2022-11-06T13:43:41.339Z,11.69
2022-11-06T13:46:10.720Z,11.74
2022-11-06T13:48:50.777Z,11.74
2022-11-06T13:51:51.978Z,11.79
2022-11-06T13:54:55.970Z,11.89
2022-11-06T13:57:41.409Z,12.02
2022-11-06T14:00:21.594Z,12.15
2022-11-06T14:03:16.124Z,12.26
2022-11-06T14:06:00.189Z,12.43
2022-11-06T14:08:44.789Z,12.58
2022-11-06T14:11:42.201Z,12.66
2022-11-06T14:14:25.304Z,12.72
2022-11-06T14:17:12.136Z,12.72
2022-11-06T14:19:39.553Z,12.93
2022-11-06T14:22:09.091Z,13.12
2022-11-06T14:24:37.106Z,13.23
2022-11-06T14:27:29.978Z,13.27
2022-11-06T14:29:57.924Z,13.23
2022-11-06T14:32:24.504Z,13.22
2022-11-06T14:34:51.018Z,13.11
2022-11-06T14:37:20.274Z,12.97
2022-11-06T14:39:55.576Z,12.91
2022-11-06T14:42:31.309Z,12.81
2022-11-06T14:45:11.909Z,12.75
2022-11-06T14:47:45.636Z,12.69
2022-11-06T14:50:26.550Z,12.69
2022-11-06T14:53:03.532Z,12.77
2022-11-06T14:55:37.454Z,12.64
2022-11-06T14:58:24.208Z,12.48
2022-11-06T15:00:57.624Z,12.47
2022-11-06T15:03:30.531Z,12.19
2022-11-06T15:06:21.887Z,11.98
2022-11-06T15:08:48.452Z,11.80
2022-11-06T15:11:30.336Z,11.74
2022-11-06T15:14:03.230Z,11.61
2022-11-06T15:16:40.878Z,11.43
2022-11-06T15:19:15.331Z,11.29
2022-11-06T15:21:55.865Z,11.26
2022-11-06T15:24:33.542Z,11.24
2022-11-06T15:27:07.973Z,11.14
2022-11-06T15:29:39.883Z,11.05
2022-11-06T15:32:13.715Z,10.98
2022-11-06T15:34:49.205Z,10.90
2022-11-06T15:37:30.096Z,10.83
2022-11-06T15:40:01.300Z,10.73
2022-11-06T15:42:31.781Z,10.73
2022-11-06T15:45:15.782Z,10.60
2022-11-06T15:48:07.513Z,10.58
2022-11-06T15:50:36.258Z,10.45
2022-11-06T15:53:12.116Z,10.42
2022-11-06T15:55:44.727Z,10.40
2022-11-06T15:58:32.266Z,10.36
2022-11-06T16:01:00.625Z,10.33
2022-11-06T16:03:30.562Z,10.38
2022-11-06T16:06:00.596Z,10.32
2022-11-06T16:08:29.624Z,10.28
2022-11-06T16:10:57.446Z,10.21
2022-11-06T16:13:25.663Z,10.23
2022-11-06T16:15:56.827Z,10.23
2022-11-06T16:18:23.285Z,10.17
2022-11-06T16:20:55.271Z,10.08
2022-11-06T16:23:45.556Z,10.10
2022-11-06T16:26:23.292Z,10.14
2022-11-06T16:28:52.498Z,10.10
2022-11-06T16:31:25.334Z,10.06
2022-11-06T16:34:03.262Z,10.04
2022-11-06T16:36:47.901Z,9.96
2022-11-06T16:39:17.366Z,9.96
2022-11-06T16:42:22.156Z,9.95
2022-11-06T16:44:50.393Z,9.91
2022-11-06T16:47:19.392Z,9.90
2022-11-06T16:49:53.624Z,9.87
2022-11-06T16:52:27.002Z,9.79
2022-11-06T16:55:17.290Z,9.75
2022-11-06T16:57:52.243Z,9.75
2022-11-06T17:00:21.718Z,9.67
2022-11-06T17:02:50.236Z,9.69
2022-11-06T17:05:19.510Z,9.79
2022-11-06T17:07:46.417Z,9.75
2022-11-06T17:10:34.743Z,9.64
2022-11-06T17:13:13.721Z,9.49
2022-11-06T17:15:42.257Z,9.52
2022-11-06T17:18:14.777Z,9.62
2022-11-06T17:20:45.095Z,9.56
2022-11-06T17:23:15.961Z,9.44
2022-11-06T17:25:44.264Z,9.37
2022-11-06T17:28:11.131Z,9.22
2022-11-06T17:30:37.716Z,9.11
2022-11-06T17:33:04.611Z,9.06
2022-11-06T17:35:31.110Z,8.99
2022-11-06T17:37:58.085Z,9.03
2022-11-06T17:40:26.370Z,8.94
2022-11-06T17:42:52.936Z,8.84
2022-11-06T17:45:19.464Z,8.78
2022-11-06T17:47:45.968Z,8.78
2022-11-06T17:50:12.483Z,8.72
2022-11-06T17:52:39.053Z,8.66
2022-11-06T17:55:06.206Z,8.59
2022-11-06T17:57:32.948Z,8.51
2022-11-06T17:59:59.423Z,8.41
2022-11-06T18:02:54.841Z,8.32
2022-11-06T18:05:12.564Z,8.22
2022-11-06T18:07:39.092Z,8.20
2022-11-06T18:10:06.019Z,8.11
2022-11-06T18:12:32.546Z,8.00
2022-11-06T18:14:59.118Z,7.97
2022-11-06T18:17:25.650Z,7.88
2022-11-06T18:19:52.321Z,7.76
2022-11-06T18:22:18.825Z,7.66
2022-11-06T18:24:45.360Z,7.62
2022-11-06T18:27:11.898Z,7.60
2022-11-06T18:29:38.389Z,7.54
2022-11-06T18:32:05.166Z,7.48
2022-11-06T18:34:31.724Z,7.40
2022-11-06T18:36:58.241Z,7.41
2022-11-06T18:39:25.257Z,7.34
2022-11-06T18:41:51.802Z,7.38
2022-11-06T18:44:18.678Z,7.40
2022-11-06T18:46:46.369Z,7.55
2022-11-06T18:49:13.125Z,7.66
2022-11-06T18:51:40.304Z,7.75
2022-11-06T18:54:09.060Z,7.75
2022-11-06T18:56:38.938Z,7.80
2022-11-06T18:59:07.079Z,7.87
2022-11-06T19:01:34.903Z,7.92
2022-11-06T19:04:03.745Z,7.97
2022-11-06T19:06:30.886Z,8.02
2022-11-06T19:08:57.954Z,8.09
2022-11-06T19:11:24.861Z,8.13
2022-11-06T19:13:51.353Z,8.13
2022-11-06T19:16:21.034Z,8.13
2022-11-06T19:21:28.202Z,8.08
2022-11-06T19:23:58.977Z,8.06
2022-11-06T19:26:31.362Z,8.10
2022-11-06T19:29:00.028Z,8.05
2022-11-06T19:31:29.401Z,8.03
2022-11-06T19:33:58.283Z,8.07
2022-11-06T19:36:25.475Z,8.03
2022-11-06T19:38:52.460Z,7.97
2022-11-06T19:41:19.534Z,7.96
2022-11-06T19:43:46.054Z,7.96
2022-11-06T19:46:12.717Z,7.99
2022-11-06T19:48:39.293Z,7.95
2022-11-06T19:51:10.917Z,7.90
2022-11-06T19:53:39.194Z,7.79
2022-11-06T19:56:08.405Z,7.63
2022-11-06T19:58:35.446Z,7.60
2022-11-06T20:01:10.022Z,7.55
2022-11-06T20:03:37.157Z,7.47
2022-11-06T20:06:07.753Z,7.51
2022-11-06T20:08:36.943Z,7.49
2022-11-06T20:11:09.708Z,7.41
2022-11-06T20:13:36.652Z,7.24
2022-11-06T20:16:05.444Z,7.14
2022-11-06T20:18:32.945Z,7.14
2022-11-06T20:21:01.566Z,7.06
2022-11-06T20:23:29.480Z,7.06
2022-11-06T20:25:56.552Z,7.02
2022-11-06T20:28:23.818Z,6.97
2022-11-06T20:30:50.651Z,6.92
2022-11-06T20:33:17.658Z,7.04
2022-11-06T20:35:44.199Z,7.05
2022-11-06T20:38:10.710Z,7.00
2022-11-06T20:40:37.348Z,6.86
2022-11-06T20:43:03.867Z,6.79
2022-11-06T20:45:30.942Z,6.79
2022-11-06T20:47:57.431Z,6.73
2022-11-06T20:50:23.929Z,6.80
2022-11-06T20:52:50.524Z,6.83
2022-11-06T20:55:17.123Z,6.84
2022-11-06T20:57:43.630Z,6.83
2022-11-06T21:00:11.001Z,6.86
2022-11-06T21:02:37.642Z,6.88
2022-11-06T21:05:04.682Z,6.88
2022-11-06T21:07:31.257Z,6.83
2022-11-06T21:09:57.787Z,6.82
2022-11-06T21:12:24.318Z,6.81
2022-11-06T21:14:50.805Z,6.76
2022-11-06T21:17:17.304Z,6.74
2022-11-06T21:19:43.919Z,6.73
2022-11-06T21:22:10.492Z,6.66
2022-11-06T21:24:37.087Z,6.60
2022-11-06T21:27:03.676Z,6.43
2022-11-06T21:29:30.209Z,6.35
2022-11-06T21:31:56.746Z,6.29
2022-11-06T21:34:23.331Z,6.25
2022-11-06T21:36:49.911Z,6.28
2022-11-06T21:39:19.980Z,6.25
2022-11-06T21:41:47.265Z,6.17
2022-11-06T21:44:16.737Z,6.14
2022-11-06T21:46:45.711Z,6.14
2022-11-06T21:49:13.557Z,6.17
2022-11-06T21:51:40.357Z,6.16
2022-11-06T21:54:25.208Z,6.15
2022-11-06T21:56:51.773Z,6.22
2022-11-06T21:59:23.531Z,6.26
2022-11-06T22:01:50.225Z,6.26
2022-11-06T22:04:16.966Z,6.26
2022-11-06T22:06:43.709Z,6.25
2022-11-06T22:09:12.738Z,6.23
2022-11-06T22:11:41.729Z,6.25
2022-11-06T22:14:12.259Z,6.21
2022-11-06T22:16:41.475Z,6.18
2022-11-06T22:19:09.575Z,6.19
2022-11-06T22:21:38.261Z,6.21
2022-11-06T22:24:06.126Z,6.15
2022-11-06T22:26:34.170Z,6.12
2022-11-06T22:29:03.658Z,6.14
2022-11-06T22:31:30.336Z,6.16
2022-11-06T22:33:57.226Z,6.16
2022-11-06T22:36:24.529Z,6.14
2022-11-06T22:38:52.005Z,6.10
2022-11-06T22:41:23.264Z,6.08
2022-11-06T22:43:50.442Z,6.12
2022-11-06T22:46:19.887Z,6.15
2022-11-06T22:48:46.910Z,6.15
2022-11-06T22:51:16.175Z,6.15
2022-11-06T22:53:42.845Z,6.17
2022-11-06T22:56:10.041Z,6.19
2022-11-06T22:58:36.565Z,6.22
2022-11-06T23:01:05.273Z,6.26
2022-11-06T23:03:32.059Z,6.28
2022-11-06T23:06:02.136Z,6.29
2022-11-06T23:08:28.733Z,6.34
2022-11-06T23:10:55.746Z,6.32
2022-11-06T23:13:22.784Z,6.39
2022-11-06T23:15:49.748Z,6.40
2022-11-06T23:18:16.473Z,6.41
2022-11-06T23:20:43.626Z,6.42
2022-11-06T23:23:10.137Z,6.42
2022-11-06T23:25:36.641Z,6.48
2022-11-06T23:28:03.204Z,6.50
2022-11-06T23:30:32.897Z,6.52
2022-11-06T23:32:59.397Z,6.58
2022-11-06T23:35:32.079Z,6.63
2022-11-06T23:37:59.367Z,6.65
2022-11-06T23:40:26.078Z,6.68
2022-11-06T23:42:54.672Z,6.69
2022-11-06T23:45:39.848Z,6.71
2022-11-06T23:48:15.162Z,6.75
2022-11-06T23:50:46.981Z,6.81
2022-11-06T23:53:17.207Z,6.80
2022-11-06T23:55:44.101Z,6.84
2022-11-06T23:58:10.709Z,6.82
